D/T METAR WX W/DIR W/SPE G/SPE TEMP DEWP
25/02/20 15:23 EGYM 251523Z 20004KT 9999 FEW020CB SCT040 06/04 Q0995 NOSIG RMK BLU BLU SSW (200°) 4.6mph 6°C 4°C
25/02/20 14:50 EGYM 251450Z 25018KT 9000 -RASN OVC015 04/02 Q0996 WHT TEMPO 9999 NSW FEW015 SCT030 RMK WHT TEMPO BLU -RA -SN WSW (250°) 20.7mph 4°C 2°C
25/02/20 14:25 EGYM 251425Z 25011KT 9999 VCSH BKN030 07/00 Q0995 TEMPO 3000 SHGS SCT012 BKN018CB RMK BLU TEMPO YLO1 VCSH WSW (250°) 12.7mph 7°C 0°C
25/02/20 13:50 EGYM 251350Z 24016KT 9999 FEW030 SCT035 BKN200 08/01 Q0996 TEMPO 6000 SHRA SCT020 RMK BLU TEMPO WHT WSW (240°) 18.4mph 8°C 1°C
25/02/20 13:20 EGYM 251320Z 24013KT 9999 SCT030 08/01 Q0996 TEMPO 6000 SHRA SCT020 RMK BLU TEMPO WHT WSW (240°) 15.0mph 8°C 1°C
25/02/20 12:50 EGYM 251250Z 26015KT 9999 FEW030 SCT035 07/00 Q0997 TEMPO 6000 SHRA SCT020 RMK BLU TEMPO WHT W (260°) 17.3mph 7°C 0°C
25/02/20 12:21 EGYM 251221Z 26017KT 9999 SCT030 08/02 Q0997 TEMPO 6000 SHRA SCT020 RMK BLU TEMPO WHT W (260°) 19.6mph 8°C 2°C
25/02/20 11:50 EGYM 251150Z 25015KT 9999 SCT030 07/02 Q0998 TEMPO 6000 SHRA SCT020 RMK BLU TEMPO WHT WSW (250°) 17.3mph 7°C 2°C
25/02/20 11:20 EGYM 251120Z 26017KT 9999 FEW030 07/00 Q0998 TEMPO 6000 SHRA SCT020 RMK BLU TEMPO WHT W (260°) 19.6mph 7°C 0°C
25/02/20 10:50 EGYM 251050Z 26016KT 9999 SCT030 07/01 Q0998 TEMPO 6000 SHRA SCT020 RMK BLU TEMPO WHT W (260°) 18.4mph 7°C 1°C
25/02/20 10:20 EGYM 251020Z 25020KT 9999 SCT025 06/02 Q0998 TEMPO 6000 SHRA SCT020 RMK BLU TEMPO WHT WSW (250°) 23.0mph 6°C 2°C
25/02/20 09:50 EGYM 250950Z 25016G27KT 9999 FEW020 06/02 Q0998 TEMPO 6000 SHRA SCT020 RMK BLU TEMPO WHT WSW (250°) 18.4mph 31.1mph 6°C 2°C
25/02/20 09:20 EGYM 250920Z 23014KT 9999 FEW020 05/02 Q0998 TEMPO 6000 SHRA SCT020 RMK BLU TEMPO WHT SW (230°) 16.1mph 5°C 2°C
25/02/20 08:50 EGYM 250850Z 23012KT 9999 SCT030 04/02 Q0999 TEMPO 6000 SHRA SCT020 RMK BLU TEMPO WHT SW (230°) 13.8mph 4°C 2°C
25/02/20 08:24 EGYM 250824Z 22012KT 9999 FEW040 04/01 Q0999 TEMPO 6000 SHRA SCT020 RMK BLU TEMPO WHT SW (220°) 13.8mph 4°C 1°C
25/02/20 07:50 EGYM 250750Z 22011KT CAVOK 03/01 Q0999 TEMPO 6000 SHRA SCT020 RMK BLU TEMPO WHT SW (220°) 12.7mph 3°C 1°C
25/02/20 07:20 EGYM 250720Z 22011KT CAVOK 03/01 Q0999 TEMPO 6000 SHTA SCT020 RMK BLU TEMPO WHT SW (220°) 12.7mph 3°C 1°C
25/02/20 06:50 EGYM 250650Z 22012KT CAVOK 03/01 Q0999 TEMPO 6000 SHRA SCT020 RMK BLU TEMPO WHT SW (220°) 13.8mph 3°C 1°C
25/02/20 05:50 EGYM 250550Z 24013KT CAVOK 03/01 Q1000 BLU WSW (240°) 15.0mph 3°C 1°C
25/02/20 04:50 EGYM 250450Z 23012KT CAVOK 03/02 Q1000 BLU SW (230°) 13.8mph 3°C 2°C
25/02/20 03:50 EGYM 250350Z 25014KT CAVOK 04/01 Q1000 BLU WSW (250°) 16.1mph 4°C 1°C
25/02/20 02:50 EGYM 250250Z AUTO 25011KT 9999 NCD 04/02 Q1001 WSW (250°) 12.7mph 4°C 2°C
25/02/20 01:50 EGYM 250150Z AUTO 24012KT 9999 NCD 04/02 Q1001 WSW (240°) 13.8mph 4°C 2°C
25/02/20 00:50 EGYM 250050Z AUTO 25016KT 9999 NCD 05/02 Q1001 WSW (250°) 18.4mph 5°C 2°C
24/02/20 23:50 EGYM 242350Z 24013KT CAVOK 05/02 Q1001 BLU WSW (240°) 15.0mph 5°C 2°C
24/02/20 22:50 EGYM 242250Z 24015KT CAVOK 06/02 Q1001 BLU WSW (240°) 17.3mph 6°C 2°C
24/02/20 21:50 EGYM 242150Z 26020KT 9999 FEW040 07/01 Q1001 BLU W (260°) 23.0mph 7°C 1°C
24/02/20 20:50 EGYM 242050Z 27017KT 9999 FEW035 07/03 Q1001 BLU W (270°) 19.6mph 7°C 3°C
24/02/20 19:50 EGYM 241950Z 26020KT CAVOK 10/04 Q1001 BLU W (260°) 23.0mph 10°C 4°C
24/02/20 18:50 EGYM 241850Z 25018KT CAVOK 11/07 Q1000 BLU WSW (250°) 20.7mph 11°C 7°C
24/02/20 17:50 EGYM 241750Z 24017KT 9999 FEW040 BKN050 11/08 Q0999 BLU WSW (240°) 19.6mph 11°C 8°C
24/02/20 16:50 EGYM 241650Z 23020KT 9999 FEW015 BKN200 11/09 Q0999 NOSIG RMK BLU BLU SW (230°) 23.0mph 11°C 9°C
24/02/20 16:20 EGYM 241620Z 23021KT 9999 FEW018 SCT024 12/09 Q0999 BECMG SCT028 RMK WHT BECMG BLU SW (230°) 24.2mph 12°C 9°C
24/02/20 15:50 EGYM 241550Z 23023KT 9999 FEW018 SCT020 12/09 Q0999 NOSIG RMK WHT WHT SW (230°) 26.5mph 12°C 9°C
24/02/20 15:20 EGYM 241520Z 23024G34KT 9999 SCT016 OVC020 12/10 Q0999 NOSIG RMK WHT WHT SW (230°) 27.6mph 39.1mph 12°C 10°C
24/02/20 14:50 EGYM 241450Z 23024KT 9999 SCT015 OVC020 12/10 Q0999 NOSIG RMK WHT WHT SW (230°) 27.6mph 12°C 10°C
24/02/20 14:20 EGYM 241420Z 22023KT 9999 SCT015 OVC020 12/10 Q1000 NOSIG RMK WHT WHT SW (220°) 26.5mph 12°C 10°C
24/02/20 13:50 EGYM 241350Z 23024KT 9999 SCT012 BKN018 OVC120 12/10 Q1000 GRN BECMG FEW012 SCT025 RMK GRN BECMG BLU SW (230°) 27.6mph 12°C 10°C
24/02/20 13:20 EGYM 241320Z 22022KT 9999 SCT012 SCT018 OVC120 11/10 Q1000 BECMG FEW 012 SCT025 RMK GRN BECMG BLU SW (220°) 25.3mph 11°C 10°C
24/02/20 12:50 EGYM 241250Z 22024KT 9999 SCT009 SCT018 OVC120 11/10 Q1001 BECMG FEW012 SCT025 RMK GRN BECMG BLU SW (220°) 27.6mph 11°C 10°C
24/02/20 12:20 EGYM 241220Z 22021KT 8000 RA SCT009 OVC014 11/10 Q1002 BECMG 9999 NSW BKN025 RMK GRN BECMG WHT RA SW (220°) 24.2mph 11°C 10°C
24/02/20 11:50 EGYM 241150Z 22021KT 7000 RA BKN009 OVC025 10/09 Q1002 NOSIG RMK GRN GRN RA SW (220°) 24.2mph 10°C 9°C
24/02/20 11:20 EGYM 241120Z 22021KT 7000 RA BKN009 OVC025 10/09 Q1003 NOSIG RMK GRN GRN RA SW (220°) 24.2mph 10°C 9°C
24/02/20 10:50 EGYM 241050Z 22019KT 7000 RA BKN009 OVC025 10/09 Q1003 NOSIG RMK GRN GRN RA SW (220°) 21.9mph 10°C 9°C
24/02/20 10:20 EGYM 241020Z 21017KT 7000 RA BKN007 OVC025 10/09 Q1004 NOSIG RMK GRN GRN RA SSW (210°) 19.6mph 10°C 9°C
24/02/20 09:50 EGYM 240950Z 20018KT 7000 RA BKN007 OVC025 09/08 Q1005 NOSIG RMK GRN GRN RA SSW (200°) 20.7mph 9°C 8°C
24/02/20 09:20 EGYM 240920Z 19015KT 4000 RA BKN005 OVC025 08/08 Q1005 BECMG 7000 -RA SCT010 RMK YLO1 BECMG GRN RA S (190°) 17.3mph 8°C 8°C
24/02/20 08:50 EGYM 240850Z 17016KT 3000 RA BKN005 OVC025 07/07 Q1006 BECMG 6000 -RADZ SCT005 RMK YLO1 YLO1 RA S (170°) 18.4mph 7°C 7°C